Waynesburg, Pennsylvania
Current Conditions -  °F | °C
As of 8:15 AM on Tuesday 21 Oct 2014 (Local Time) from KAFJ Reporting Station
Overcast Overcast  
Wind Chill: 50°   Ceiling: 800
Heat Index: 50°   Visibility: 5mi
Dew Point: 46°   Wind: 5mph
Humidity: 87%   Direction: 240°WSW
Pressure: 29.89"   Gusts: NA
Location:  39.9°N, 80.18°W
Report Text: KAFJ 211215Z AUTO 24004KT 5SM OVC008 10/08 A2989 RMK AO1
Loading
Personal Weather Stations






























Interactive Weather Map
Tropical Storm Tracking
New forecast layout! Learn more

10-Day Weather Forecast

Advertisements
Track Severe Weather on mobile